createdAt,value
2018-07-09T00:00:09.555Z,0.00
2018-07-09T00:01:09.595Z,0.00
2018-07-09T00:02:09.632Z,0.00
2018-07-09T00:03:09.670Z,0.00
2018-07-09T00:04:09.708Z,0.00
2018-07-09T00:05:09.746Z,0.00
2018-07-09T00:06:09.805Z,0.00
2018-07-09T00:07:09.821Z,0.00
2018-07-09T00:08:09.860Z,0.00
2018-07-09T00:09:09.897Z,0.00
2018-07-09T00:10:09.939Z,0.00
2018-07-09T00:11:09.982Z,0.00
2018-07-09T00:12:10.011Z,0.00
2018-07-09T00:13:10.050Z,0.00
2018-07-09T00:14:10.089Z,0.00
2018-07-09T00:15:10.125Z,0.00
2018-07-09T00:16:10.162Z,0.00
2018-07-09T00:17:10.200Z,0.00
2018-07-09T00:18:10.237Z,0.00
2018-07-09T00:19:10.274Z,0.00
2018-07-09T00:20:10.314Z,0.00
2018-07-09T00:21:10.353Z,0.00
2018-07-09T00:22:10.392Z,0.00
2018-07-09T00:23:10.428Z,0.00
2018-07-09T00:24:10.465Z,0.00
2018-07-09T00:25:10.505Z,0.00
2018-07-09T00:26:10.540Z,0.00
2018-07-09T00:27:10.579Z,0.00
2018-07-09T00:28:10.616Z,0.00
2018-07-09T00:29:10.660Z,0.00
2018-07-09T00:30:10.691Z,0.00
2018-07-09T00:31:10.730Z,0.00
2018-07-09T00:32:10.781Z,0.00
2018-07-09T00:33:10.806Z,0.00
2018-07-09T00:34:10.844Z,0.00
2018-07-09T00:35:10.882Z,0.00
2018-07-09T00:36:10.917Z,0.00
2018-07-09T00:37:10.964Z,0.00
2018-07-09T00:38:10.994Z,0.00
2018-07-09T00:39:11.032Z,0.00
2018-07-09T00:40:11.071Z,0.00
2018-07-09T00:41:11.112Z,0.00
2018-07-09T00:42:11.148Z,0.00
2018-07-09T00:43:11.183Z,0.00
2018-07-09T00:44:11.219Z,0.00
2018-07-09T00:45:11.258Z,0.00
2018-07-09T00:46:11.295Z,0.00
2018-07-09T00:47:11.331Z,0.00
2018-07-09T00:48:11.373Z,0.00
2018-07-09T00:49:11.407Z,0.00
2018-07-09T00:50:11.444Z,0.00
2018-07-09T00:51:11.484Z,0.00
2018-07-09T00:52:11.523Z,0.00
2018-07-09T00:53:11.558Z,0.00
2018-07-09T00:54:11.595Z,0.00
2018-07-09T00:55:11.632Z,0.00
2018-07-09T00:56:11.670Z,0.00
2018-07-09T00:57:11.708Z,0.00
2018-07-09T00:58:11.746Z,0.00
2018-07-09T00:59:11.783Z,0.00
2018-07-09T01:00:11.821Z,0.00
2018-07-09T01:01:11.859Z,0.00
2018-07-09T01:02:11.903Z,0.00
2018-07-09T01:03:11.936Z,0.00
2018-07-09T01:04:11.980Z,0.00
2018-07-09T01:05:12.008Z,0.00
2018-07-09T01:06:12.045Z,0.00
2018-07-09T01:07:12.084Z,0.00
2018-07-09T01:08:12.121Z,0.00
2018-07-09T01:09:12.166Z,0.00
2018-07-09T01:10:12.194Z,0.00
2018-07-09T01:11:12.334Z,0.00
2018-07-09T01:12:12.270Z,0.00
2018-07-09T01:13:12.307Z,0.00
2018-07-09T01:14:12.343Z,0.00
2018-07-09T01:15:12.383Z,0.00
2018-07-09T01:16:12.419Z,0.00
2018-07-09T01:17:12.455Z,0.00
2018-07-09T01:18:12.492Z,0.00
2018-07-09T01:19:12.537Z,0.00
2018-07-09T01:20:12.571Z,0.00
2018-07-09T01:21:12.607Z,0.00
2018-07-09T01:22:12.644Z,0.00
2018-07-09T01:23:12.681Z,0.00
2018-07-09T01:24:12.717Z,0.00
2018-07-09T01:25:12.755Z,0.00
2018-07-09T01:26:12.798Z,0.00
2018-07-09T01:27:12.829Z,0.00
2018-07-09T01:28:12.869Z,0.00
2018-07-09T01:29:12.904Z,0.00
2018-07-09T01:30:12.940Z,0.00
2018-07-09T01:31:12.978Z,0.00
2018-07-09T01:32:13.015Z,0.00
2018-07-09T01:33:13.053Z,0.00
2018-07-09T01:34:13.091Z,0.00
2018-07-09T01:35:13.126Z,0.00
2018-07-09T01:36:13.168Z,0.00
2018-07-09T01:37:13.202Z,0.00
2018-07-09T01:38:13.239Z,0.00
2018-07-09T01:39:13.280Z,0.00
2018-07-09T01:40:13.312Z,0.00
2018-07-09T01:41:13.350Z,0.00
2018-07-09T01:42:13.386Z,0.00
2018-07-09T01:43:13.425Z,0.00
2018-07-09T01:44:13.461Z,0.00
2018-07-09T01:45:13.500Z,0.00
2018-07-09T01:46:13.535Z,0.00
2018-07-09T01:47:13.572Z,0.00
2018-07-09T01:48:13.611Z,0.00
2018-07-09T01:49:13.647Z,0.00
2018-07-09T01:50:13.687Z,0.00
2018-07-09T01:51:13.721Z,0.00
2018-07-09T01:52:13.757Z,0.00
2018-07-09T01:53:13.794Z,0.00
2018-07-09T01:54:13.831Z,0.00
2018-07-09T01:55:13.871Z,0.00
2018-07-09T01:56:13.905Z,0.00
2018-07-09T01:57:13.944Z,0.00
2018-07-09T01:58:13.981Z,0.00
2018-07-09T01:59:14.022Z,0.00
2018-07-09T02:00:14.063Z,0.00
2018-07-09T02:01:14.092Z,0.00
2018-07-09T02:02:14.129Z,0.00
2018-07-09T02:03:14.166Z,0.00
2018-07-09T02:04:14.203Z,0.00
2018-07-09T02:05:14.241Z,0.00
2018-07-09T02:06:14.277Z,0.00
2018-07-09T02:07:14.355Z,0.00
2018-07-09T02:08:14.351Z,0.00
2018-07-09T02:09:14.388Z,0.00
2018-07-09T02:10:14.432Z,0.00
2018-07-09T02:11:14.461Z,0.00
2018-07-09T02:12:14.503Z,0.00
2018-07-09T02:13:14.536Z,0.00
2018-07-09T02:14:14.572Z,0.00
2018-07-09T02:15:14.610Z,0.00
2018-07-09T02:16:14.647Z,0.00
2018-07-09T02:17:14.683Z,0.00
2018-07-09T02:18:14.719Z,0.00
2018-07-09T02:19:14.757Z,0.00
2018-07-09T02:20:14.794Z,0.00
2018-07-09T02:21:14.830Z,0.00
2018-07-09T02:22:14.872Z,0.00
2018-07-09T02:23:14.904Z,0.00
2018-07-09T02:24:14.942Z,0.00
2018-07-09T02:25:14.978Z,0.00
2018-07-09T02:26:15.015Z,0.00
2018-07-09T02:27:15.051Z,0.00
2018-07-09T02:28:15.089Z,0.00
2018-07-09T02:29:15.129Z,4.00
2018-07-09T02:30:15.161Z,4.00
2018-07-09T02:31:15.211Z,4.00
2018-07-09T02:32:15.239Z,0.00
2018-07-09T02:33:15.286Z,0.00
2018-07-09T02:34:15.311Z,4.00
2018-07-09T02:35:15.348Z,4.00
2018-07-09T02:36:15.387Z,4.00
2018-07-09T02:37:15.420Z,4.00
2018-07-09T02:38:15.457Z,4.00
2018-07-09T02:39:15.495Z,8.00
2018-07-09T02:40:15.533Z,8.00
2018-07-09T02:41:15.570Z,8.00
2018-07-09T02:42:15.605Z,8.00
2018-07-09T02:43:15.640Z,12.00
2018-07-09T02:44:15.683Z,12.00
2018-07-09T02:45:15.715Z,16.00
2018-07-09T02:46:15.752Z,12.00
2018-07-09T02:47:15.787Z,20.00
2018-07-09T02:48:15.825Z,20.00
2018-07-09T02:49:15.928Z,24.00
2018-07-09T02:50:15.897Z,28.00
2018-07-09T02:51:15.934Z,28.00
2018-07-09T02:52:15.972Z,32.00
2018-07-09T02:53:16.011Z,36.00
2018-07-09T02:54:16.045Z,44.00
2018-07-09T02:55:16.114Z,48.00
2018-07-09T02:56:16.125Z,52.00
2018-07-09T02:57:16.154Z,60.00
2018-07-09T02:58:16.192Z,68.00
2018-07-09T02:59:16.227Z,76.00
2018-07-09T03:00:16.264Z,84.00
2018-07-09T03:01:16.320Z,92.00
2018-07-09T03:02:16.338Z,104.00
2018-07-09T03:03:16.374Z,116.00
2018-07-09T03:04:16.411Z,128.00
2018-07-09T03:05:16.457Z,140.00
2018-07-09T03:06:16.485Z,152.00
2018-07-09T03:07:16.522Z,172.00
2018-07-09T03:08:16.557Z,184.00
2018-07-09T03:09:16.596Z,204.00
2018-07-09T03:10:16.631Z,220.00
2018-07-09T03:11:16.676Z,244.00
2018-07-09T03:12:16.705Z,260.00
2018-07-09T03:13:16.742Z,284.00
2018-07-09T03:14:16.790Z,304.00
2018-07-09T03:15:16.813Z,332.00
2018-07-09T03:16:16.852Z,356.00
2018-07-09T03:17:16.889Z,384.00
2018-07-09T03:18:16.934Z,412.00
2018-07-09T03:19:16.961Z,440.00
2018-07-09T03:20:16.998Z,468.00
2018-07-09T03:21:17.034Z,504.00
2018-07-09T03:22:17.071Z,536.00
2018-07-09T03:23:17.107Z,568.00
2018-07-09T03:24:17.144Z,604.00
2018-07-09T03:25:17.179Z,640.00
2018-07-09T03:26:17.216Z,680.00
2018-07-09T03:27:17.253Z,720.00
2018-07-09T03:28:17.288Z,764.00
2018-07-09T03:29:17.326Z,808.00
2018-07-09T03:30:17.366Z,852.00
2018-07-09T03:31:17.397Z,896.00
2018-07-09T03:32:17.435Z,936.00
2018-07-09T03:33:17.487Z,984.00
2018-07-09T03:34:17.508Z,1036.00
2018-07-09T03:35:17.552Z,1088.00
2018-07-09T03:36:17.581Z,1140.00
2018-07-09T03:37:17.619Z,1196.00
2018-07-09T03:38:17.654Z,1248.00
2018-07-09T03:39:17.691Z,1308.00
2018-07-09T03:40:17.727Z,1364.00
2018-07-09T03:41:17.765Z,1424.00
2018-07-09T03:42:17.800Z,1480.00
2018-07-09T03:43:17.836Z,1528.00
2018-07-09T03:44:17.873Z,1568.00
2018-07-09T03:45:17.910Z,1620.00
2018-07-09T03:46:17.945Z,1688.00
2018-07-09T03:47:17.983Z,1768.00
2018-07-09T03:48:18.019Z,1848.00
2018-07-09T03:49:18.053Z,1928.00
2018-07-09T03:50:18.092Z,1996.00
2018-07-09T03:51:18.127Z,2068.00
2018-07-09T03:52:18.165Z,2136.00
2018-07-09T03:53:18.201Z,2204.00
2018-07-09T03:54:18.235Z,2272.00
2018-07-09T03:55:18.272Z,2344.00
2018-07-09T03:56:18.309Z,2416.00
2018-07-09T03:57:18.346Z,2484.00
2018-07-09T03:58:18.381Z,2548.00
2018-07-09T03:59:18.417Z,2612.00
2018-07-09T04:00:18.454Z,2680.00
2018-07-09T04:01:18.492Z,2764.00
2018-07-09T04:02:18.548Z,2864.00
2018-07-09T04:03:18.562Z,2980.00
2018-07-09T04:04:18.601Z,3108.00
2018-07-09T04:05:18.638Z,3240.00
2018-07-09T04:06:18.673Z,3364.00
2018-07-09T04:07:18.709Z,3484.00
2018-07-09T04:08:18.747Z,3604.00
2018-07-09T04:09:18.784Z,3716.00
2018-07-09T04:10:18.821Z,3828.00
2018-07-09T04:11:18.856Z,3932.00
2018-07-09T04:12:18.893Z,4032.00
2018-07-09T04:13:18.930Z,4116.00
2018-07-09T04:14:18.965Z,4176.00
2018-07-09T04:15:19.001Z,4232.00
2018-07-09T04:16:19.040Z,4264.00
2018-07-09T04:17:19.076Z,4276.00
2018-07-09T04:18:19.112Z,4304.00
2018-07-09T04:19:19.149Z,4368.00
2018-07-09T04:20:19.185Z,4456.00
2018-07-09T04:21:19.223Z,4548.00
2018-07-09T04:22:19.258Z,4624.00
2018-07-09T04:23:19.296Z,4680.00
2018-07-09T04:24:19.333Z,4724.00
2018-07-09T04:25:19.370Z,4760.00
2018-07-09T04:26:19.419Z,4800.00
2018-07-09T04:27:19.441Z,4828.00
2018-07-09T04:28:19.479Z,4824.00
2018-07-09T04:29:19.515Z,4784.00
2018-07-09T04:30:19.552Z,4728.00
2018-07-09T04:31:19.591Z,4616.00
2018-07-09T04:32:19.624Z,4568.00
2018-07-09T04:33:19.673Z,4548.00
2018-07-09T04:34:19.698Z,4528.00
2018-07-09T04:35:19.736Z,4400.00
2018-07-09T04:36:19.776Z,4324.00
2018-07-09T04:37:19.808Z,4244.00
2018-07-09T04:38:19.846Z,4212.00
2018-07-09T04:39:19.883Z,4184.00
2018-07-09T04:40:19.932Z,4164.00
2018-07-09T04:41:19.956Z,4160.00
2018-07-09T04:42:19.999Z,4128.00
2018-07-09T04:43:20.101Z,4100.00
2018-07-09T04:44:20.068Z,4096.00
2018-07-09T04:45:20.108Z,4172.00
2018-07-09T04:46:20.148Z,4228.00
2018-07-09T04:47:20.180Z,4320.00
2018-07-09T04:48:20.214Z,4420.00
2018-07-09T04:49:20.252Z,4520.00
2018-07-09T04:50:20.287Z,4576.00
2018-07-09T04:51:20.326Z,4668.00
2018-07-09T04:52:20.361Z,4812.00
2018-07-09T04:53:20.403Z,5100.00
2018-07-09T04:54:20.441Z,5388.00
2018-07-09T04:55:20.476Z,5788.00
2018-07-09T04:56:20.510Z,6012.00
2018-07-09T04:57:20.548Z,6168.00
2018-07-09T04:58:20.582Z,6296.00
2018-07-09T04:59:20.621Z,6468.00
2018-07-09T05:00:20.666Z,6692.00
2018-07-09T05:01:20.699Z,6768.00
2018-07-09T05:02:20.730Z,6808.00
2018-07-09T05:03:20.769Z,6812.00
2018-07-09T05:04:20.855Z,6800.00
2018-07-09T05:05:20.852Z,6788.00
2018-07-09T05:06:20.880Z,6788.00
2018-07-09T05:07:20.920Z,6788.00
2018-07-09T05:08:20.955Z,6816.00
2018-07-09T05:09:20.992Z,6860.00
2018-07-09T05:10:21.033Z,6888.00
2018-07-09T05:11:21.066Z,6928.00
2018-07-09T05:12:21.104Z,6988.00
2018-07-09T05:13:21.150Z,7048.00
2018-07-09T05:14:21.179Z,7128.00
2018-07-09T05:15:21.217Z,7184.00
2018-07-09T05:16:21.254Z,7260.00
2018-07-09T05:17:21.296Z,7364.00
2018-07-09T05:18:21.331Z,7464.00
2018-07-09T05:19:21.367Z,7532.00
2018-07-09T05:20:21.404Z,7584.00
2018-07-09T05:21:21.444Z,7688.00
2018-07-09T05:22:21.479Z,8076.00
2018-07-09T05:23:21.516Z,8476.00
2018-07-09T05:24:21.556Z,8272.00
2018-07-09T05:25:21.598Z,7856.00
2018-07-09T05:26:21.630Z,7544.00
2018-07-09T05:27:21.668Z,7080.00
2018-07-09T05:28:21.707Z,6704.00
2018-07-09T05:29:21.745Z,6152.00
2018-07-09T05:30:21.789Z,5820.00
2018-07-09T05:31:21.819Z,5508.00
2018-07-09T05:32:21.857Z,5132.00
2018-07-09T05:33:21.952Z,4900.00
2018-07-09T05:34:21.932Z,4756.00
2018-07-09T05:35:21.973Z,4684.00
2018-07-09T05:36:22.009Z,4636.00
2018-07-09T05:37:22.047Z,4648.00
2018-07-09T05:38:22.088Z,4724.00
2018-07-09T05:39:22.123Z,4896.00
2018-07-09T05:40:22.161Z,5116.00
2018-07-09T05:41:22.201Z,5332.00
2018-07-09T05:42:22.238Z,5396.00
2018-07-09T05:43:22.277Z,5532.00
2018-07-09T05:44:22.314Z,5724.00
2018-07-09T05:45:22.354Z,5932.00
2018-07-09T05:46:22.393Z,6152.00
2018-07-09T05:47:22.429Z,6292.00
2018-07-09T05:48:22.567Z,6424.00
2018-07-09T05:49:22.506Z,6552.00
2018-07-09T05:50:22.542Z,6708.00
2018-07-09T05:51:22.581Z,6884.00
2018-07-09T05:52:22.665Z,7064.00
2018-07-09T05:53:22.705Z,7264.00
2018-07-09T05:54:22.695Z,7468.00
2018-07-09T05:55:22.736Z,7688.00
2018-07-09T05:56:22.771Z,7944.00
2018-07-09T05:57:22.814Z,8208.00
2018-07-09T05:58:22.849Z,8512.00
2018-07-09T05:59:22.888Z,8832.00
2018-07-09T06:00:22.924Z,9148.00
2018-07-09T06:01:22.965Z,9464.00
2018-07-09T06:02:23.010Z,9740.00
2018-07-09T06:03:23.040Z,9972.00
2018-07-09T06:04:23.080Z,10152.00
2018-07-09T06:05:23.133Z,10264.00
2018-07-09T06:06:23.155Z,10340.00
2018-07-09T06:07:23.196Z,10372.00
2018-07-09T06:08:23.232Z,10384.00
2018-07-09T06:09:23.274Z,10292.00
2018-07-09T06:10:23.313Z,10172.00
2018-07-09T06:11:23.432Z,10100.00
2018-07-09T06:12:23.388Z,10036.00
2018-07-09T06:13:23.427Z,10060.00
2018-07-09T06:14:23.465Z,10188.00
2018-07-09T06:15:23.502Z,10216.00
2018-07-09T06:16:23.540Z,10184.00
2018-07-09T06:17:23.586Z,10184.00
2018-07-09T06:18:23.617Z,10308.00
2018-07-09T06:19:23.742Z,10488.00
2018-07-09T06:20:23.695Z,10580.00
2018-07-09T06:21:23.745Z,10464.00
2018-07-09T06:22:23.774Z,10440.00
2018-07-09T06:23:23.811Z,10444.00
2018-07-09T06:24:23.852Z,10460.00
2018-07-09T06:25:23.945Z,10384.00
2018-07-09T06:26:23.981Z,10168.00
2018-07-09T06:27:23.969Z,9836.00
2018-07-09T06:28:24.008Z,9576.00
2018-07-09T06:29:24.046Z,9404.00
2018-07-09T06:30:24.086Z,9236.00
2018-07-09T06:31:24.126Z,9132.00
2018-07-09T06:32:24.165Z,8996.00
2018-07-09T06:33:24.221Z,8716.00
2018-07-09T06:34:24.242Z,8420.00
2018-07-09T06:35:24.280Z,8104.00
2018-07-09T06:36:24.318Z,7888.00
2018-07-09T06:37:24.359Z,7804.00
2018-07-09T06:38:24.399Z,7536.00
2018-07-09T06:39:24.436Z,7164.00
2018-07-09T06:40:24.476Z,6820.00
2018-07-09T06:41:24.515Z,6584.00
2018-07-09T06:42:24.554Z,6416.00
2018-07-09T06:43:24.593Z,6404.00
2018-07-09T06:44:24.632Z,6776.00
2018-07-09T06:45:24.673Z,6736.00
2018-07-09T06:46:24.714Z,6416.00
2018-07-09T06:47:24.750Z,6004.00
2018-07-09T06:48:24.796Z,5656.00
2018-07-09T06:49:24.828Z,5584.00
2018-07-09T06:50:24.867Z,5324.00
2018-07-09T06:51:24.906Z,5000.00
2018-07-09T06:52:24.948Z,4912.00
2018-07-09T06:53:24.985Z,4548.00
2018-07-09T06:54:25.028Z,4440.00
2018-07-09T06:55:25.061Z,4516.00
2018-07-09T06:56:25.103Z,4576.00
2018-07-09T06:57:25.144Z,4756.00
2018-07-09T06:58:25.185Z,4772.00
2018-07-09T06:59:25.221Z,4812.00
2018-07-09T07:00:25.258Z,4796.00
2018-07-09T07:01:25.297Z,4764.00
2018-07-09T07:02:25.523Z,4724.00
2018-07-09T07:03:25.375Z,4680.00
2018-07-09T07:04:25.415Z,4656.00
2018-07-09T07:05:25.454Z,4644.00
2018-07-09T07:06:25.504Z,4628.00
2018-07-09T07:07:25.540Z,4612.00
2018-07-09T07:08:25.570Z,4620.00
2018-07-09T07:09:25.631Z,4616.00
2018-07-09T07:10:25.653Z,4600.00
2018-07-09T07:11:25.691Z,4592.00
2018-07-09T07:12:25.726Z,4576.00
2018-07-09T07:13:25.774Z,4556.00
2018-07-09T07:14:25.848Z,4548.00
2018-07-09T07:15:25.845Z,4548.00
2018-07-09T07:16:25.884Z,4552.00
2018-07-09T07:17:25.923Z,4552.00
2018-07-09T07:18:25.961Z,4548.00
2018-07-09T07:19:26.008Z,4540.00
2018-07-09T07:20:26.041Z,4528.00
2018-07-09T07:21:26.079Z,4520.00
2018-07-09T07:22:26.119Z,4512.00
2018-07-09T07:23:26.158Z,4496.00
2018-07-09T07:24:26.195Z,4496.00
2018-07-09T07:25:26.238Z,4492.00
2018-07-09T07:26:26.296Z,4480.00
2018-07-09T07:27:26.313Z,4468.00
2018-07-09T07:28:26.355Z,4460.00
2018-07-09T07:29:26.394Z,4464.00
2018-07-09T07:30:26.431Z,4452.00
2018-07-09T07:31:26.471Z,4444.00
2018-07-09T07:32:26.510Z,4444.00
2018-07-09T07:33:26.554Z,4444.00
2018-07-09T07:34:26.588Z,4440.00
2018-07-09T07:35:26.627Z,4424.00
2018-07-09T07:36:26.665Z,4420.00
2018-07-09T07:37:26.706Z,4412.00
2018-07-09T07:38:26.743Z,4416.00
2018-07-09T07:39:26.839Z,4424.00
2018-07-09T07:40:26.823Z,4424.00
2018-07-09T07:41:26.863Z,4408.00
2018-07-09T07:42:26.902Z,4396.00
2018-07-09T07:43:26.941Z,4380.00
2018-07-09T07:44:26.981Z,4392.00
2018-07-09T07:45:27.018Z,4400.00
2018-07-09T07:46:27.067Z,4408.00
2018-07-09T07:47:27.097Z,4440.00
2018-07-09T07:48:27.141Z,4456.00
2018-07-09T07:49:27.176Z,4460.00
2018-07-09T07:50:27.286Z,4452.00
2018-07-09T07:51:27.263Z,4440.00
2018-07-09T07:52:27.297Z,4452.00
2018-07-09T07:53:27.342Z,4460.00
2018-07-09T07:54:27.373Z,4460.00
2018-07-09T07:55:27.411Z,4436.00
2018-07-09T07:56:27.454Z,4416.00
2018-07-09T07:57:27.491Z,4408.00
2018-07-09T07:58:27.531Z,4400.00
2018-07-09T07:59:27.570Z,4412.00
2018-07-09T08:00:27.610Z,4420.00
2018-07-09T08:01:27.650Z,4424.00
2018-07-09T08:02:27.693Z,4420.00
2018-07-09T08:03:27.727Z,4428.00
2018-07-09T08:04:27.768Z,4432.00
2018-07-09T08:05:27.806Z,4436.00
2018-07-09T08:06:27.845Z,4440.00
2018-07-09T08:07:27.883Z,4448.00
2018-07-09T08:08:27.924Z,4456.00
2018-07-09T08:09:28.081Z,4460.00
2018-07-09T08:10:28.002Z,4476.00
2018-07-09T08:11:47.731Z,4476.00
2018-07-09T08:13:29.008Z,4488.00
2018-07-09T08:14:28.162Z,4472.00
2018-07-09T08:15:28.223Z,4460.00
2018-07-09T08:16:28.241Z,4428.00
2018-07-09T08:17:28.280Z,4412.00
2018-07-09T08:18:28.318Z,4424.00
2018-07-09T08:19:28.358Z,4424.00
2018-07-09T08:20:28.397Z,4428.00
2018-07-09T08:21:28.438Z,4428.00
2018-07-09T08:22:28.477Z,4428.00
2018-07-09T08:23:28.516Z,4432.00
2018-07-09T08:24:28.556Z,4424.00
2018-07-09T08:25:28.687Z,4392.00
2018-07-09T08:26:28.639Z,4372.00
2018-07-09T08:27:28.681Z,4392.00
2018-07-09T08:28:28.715Z,4388.00
2018-07-09T08:29:28.757Z,4380.00
2018-07-09T08:30:28.794Z,4364.00
2018-07-09T08:31:28.875Z,4332.00
2018-07-09T08:32:28.877Z,4320.00
2018-07-09T08:33:28.914Z,4324.00
2018-07-09T08:34:28.952Z,4324.00
2018-07-09T08:35:28.991Z,4328.00
2018-07-09T08:36:29.047Z,4344.00
2018-07-09T08:37:29.072Z,4356.00
2018-07-09T08:38:29.110Z,4356.00
2018-07-09T08:39:29.151Z,4328.00
2018-07-09T08:40:29.189Z,4296.00
2018-07-09T08:41:29.231Z,4308.00
2018-07-09T08:42:29.268Z,4324.00
2018-07-09T08:43:29.308Z,4332.00
2018-07-09T08:44:29.348Z,4316.00
2018-07-09T08:45:29.389Z,4296.00
2018-07-09T08:46:29.427Z,4296.00
2018-07-09T08:47:29.574Z,4288.00
2018-07-09T08:48:29.508Z,4276.00
2018-07-09T08:49:29.562Z,4268.00
2018-07-09T08:50:29.587Z,4260.00
2018-07-09T08:51:29.628Z,4244.00
2018-07-09T08:52:29.669Z,4228.00
2018-07-09T08:53:29.707Z,4224.00
2018-07-09T08:54:29.752Z,4224.00
2018-07-09T08:55:29.787Z,4228.00
2018-07-09T08:56:29.828Z,4240.00
2018-07-09T08:57:29.868Z,4240.00
2018-07-09T08:58:29.913Z,4232.00
2018-07-09T08:59:29.947Z,4220.00
2018-07-09T09:00:29.986Z,4204.00
2018-07-09T09:01:30.031Z,4208.00
2018-07-09T09:02:30.066Z,4208.00
2018-07-09T09:03:30.106Z,4220.00
2018-07-09T09:04:30.148Z,4232.00
2018-07-09T09:05:30.188Z,4224.00
2018-07-09T09:06:30.228Z,4232.00
2018-07-09T09:07:30.272Z,4240.00
2018-07-09T09:08:30.303Z,4268.00
2018-07-09T09:09:30.345Z,4288.00
2018-07-09T09:10:30.447Z,4284.00
2018-07-09T09:11:30.427Z,4268.00
2018-07-09T09:12:30.465Z,4252.00
2018-07-09T09:13:30.507Z,4244.00
2018-07-09T09:14:30.544Z,4240.00
2018-07-09T09:15:30.585Z,4244.00
2018-07-09T09:16:30.638Z,4224.00
2018-07-09T09:17:30.670Z,4200.00
2018-07-09T09:18:30.706Z,4188.00
2018-07-09T09:19:30.745Z,4176.00
2018-07-09T09:20:30.784Z,4160.00
2018-07-09T09:21:30.827Z,4140.00
2018-07-09T09:22:30.867Z,4112.00
2018-07-09T09:23:30.906Z,4100.00
2018-07-09T09:24:30.945Z,4116.00
2018-07-09T09:25:31.004Z,4156.00
2018-07-09T09:26:31.024Z,4156.00
2018-07-09T09:27:31.065Z,4140.00
2018-07-09T09:28:31.106Z,4120.00
2018-07-09T09:29:31.145Z,4132.00
2018-07-09T09:30:31.237Z,4124.00
2018-07-09T09:31:31.325Z,4132.00
2018-07-09T09:32:31.264Z,4120.00
2018-07-09T09:33:31.305Z,4124.00
2018-07-09T09:34:31.353Z,4148.00
2018-07-09T09:35:31.386Z,4156.00
2018-07-09T09:36:31.430Z,4160.00
2018-07-09T09:37:31.490Z,4160.00
2018-07-09T09:38:31.503Z,4148.00
2018-07-09T09:39:31.545Z,4156.00
2018-07-09T09:40:31.586Z,4152.00
2018-07-09T09:41:31.627Z,4152.00
2018-07-09T09:42:31.665Z,4132.00
2018-07-09T09:43:31.706Z,4120.00
2018-07-09T09:44:31.747Z,4096.00
2018-07-09T09:45:31.787Z,4088.00
2018-07-09T09:46:31.827Z,4092.00
2018-07-09T09:47:31.868Z,4092.00
2018-07-09T09:48:31.908Z,4084.00
2018-07-09T09:49:31.948Z,4080.00
2018-07-09T09:50:31.988Z,4072.00
2018-07-09T09:51:32.036Z,4092.00
2018-07-09T09:52:32.070Z,4068.00
2018-07-09T09:53:32.111Z,4044.00
2018-07-09T09:54:32.150Z,4024.00
2018-07-09T09:55:32.191Z,4004.00
2018-07-09T09:56:32.232Z,4020.00
2018-07-09T09:57:32.276Z,4024.00
2018-07-09T09:58:32.314Z,4016.00
2018-07-09T09:59:32.353Z,4004.00
2018-07-09T10:00:32.399Z,3992.00
2018-07-09T10:01:32.436Z,4004.00
2018-07-09T10:02:32.484Z,4016.00
2018-07-09T10:03:32.514Z,4020.00
2018-07-09T10:04:32.557Z,4016.00
2018-07-09T10:05:32.597Z,4084.00
2018-07-09T10:06:32.683Z,4108.00
2018-07-09T10:07:32.677Z,4120.00
2018-07-09T10:08:32.738Z,4128.00
2018-07-09T10:09:32.758Z,4124.00
2018-07-09T10:10:32.797Z,4112.00
2018-07-09T10:11:32.836Z,4112.00
2018-07-09T10:12:32.879Z,4124.00
2018-07-09T10:13:32.919Z,4148.00
2018-07-09T10:14:32.959Z,4156.00
2018-07-09T10:15:33.001Z,4156.00
2018-07-09T10:16:33.045Z,4160.00
2018-07-09T10:17:33.082Z,4152.00
2018-07-09T10:18:33.122Z,4148.00
2018-07-09T10:19:33.163Z,4148.00
2018-07-09T10:20:33.203Z,4140.00
2018-07-09T10:21:33.253Z,4144.00
2018-07-09T10:22:33.312Z,4132.00
2018-07-09T10:23:33.393Z,4108.00
2018-07-09T10:24:33.369Z,4104.00
2018-07-09T10:25:33.412Z,4112.00
2018-07-09T10:26:33.448Z,4120.00
2018-07-09T10:27:33.490Z,4112.00
2018-07-09T10:28:33.530Z,4120.00
2018-07-09T10:29:33.572Z,4080.00
2018-07-09T10:30:33.669Z,4068.00
2018-07-09T10:31:33.654Z,4072.00
2018-07-09T10:32:33.694Z,4056.00
2018-07-09T10:33:33.735Z,4052.00
2018-07-09T10:34:33.774Z,4084.00
2018-07-09T10:35:33.815Z,4104.00
2018-07-09T10:36:33.866Z,4128.00
2018-07-09T10:37:33.898Z,4132.00
2018-07-09T10:38:33.937Z,4136.00
2018-07-09T10:39:33.997Z,4116.00
2018-07-09T10:40:34.022Z,4120.00
2018-07-09T10:41:34.062Z,4152.00
2018-07-09T10:42:34.101Z,4184.00
2018-07-09T10:43:34.142Z,4200.00
2018-07-09T10:44:34.183Z,4212.00
2018-07-09T10:45:34.234Z,4220.00
2018-07-09T10:46:34.267Z,4248.00
2018-07-09T10:47:34.314Z,4288.00
2018-07-09T10:48:34.347Z,4332.00
2018-07-09T10:49:34.398Z,4372.00
2018-07-09T10:50:34.429Z,4420.00
2018-07-09T10:51:34.471Z,4472.00
2018-07-09T10:52:34.512Z,4520.00
2018-07-09T10:53:34.553Z,4560.00
2018-07-09T10:54:34.595Z,4600.00
2018-07-09T10:55:34.635Z,4588.00
2018-07-09T10:56:34.725Z,4624.00
2018-07-09T10:57:34.717Z,4644.00
2018-07-09T10:58:34.758Z,4604.00
2018-07-09T10:59:34.801Z,4504.00
2018-07-09T11:00:34.841Z,4440.00
2018-07-09T11:01:34.889Z,4396.00
2018-07-09T11:02:34.922Z,4388.00
2018-07-09T11:03:34.963Z,4484.00
2018-07-09T11:04:35.008Z,4508.00
2018-07-09T11:05:35.046Z,4504.00
2018-07-09T11:07:35.128Z,4524.00
2018-07-09T11:08:35.173Z,4536.00
2018-07-09T11:09:35.222Z,4588.00
2018-07-09T11:10:35.252Z,4648.00
2018-07-09T11:11:35.303Z,4704.00
2018-07-09T11:12:35.338Z,4740.00
2018-07-09T11:13:35.385Z,4740.00
2018-07-09T11:14:35.418Z,4756.00
2018-07-09T11:15:35.486Z,4844.00
2018-07-09T11:16:35.501Z,4908.00
2018-07-09T11:17:35.545Z,4984.00
2018-07-09T11:18:35.582Z,4996.00
2018-07-09T11:19:35.626Z,4928.00
2018-07-09T11:20:35.667Z,4852.00
2018-07-09T11:21:35.725Z,4844.00
2018-07-09T11:22:35.748Z,4828.00
2018-07-09T11:23:35.796Z,4884.00
2018-07-09T11:24:35.832Z,4920.00
2018-07-09T11:25:35.876Z,4880.00
2018-07-09T11:26:35.915Z,4896.00
2018-07-09T11:27:35.959Z,4892.00
2018-07-09T11:28:36.006Z,4952.00
2018-07-09T11:29:36.042Z,5004.00
2018-07-09T11:30:36.083Z,4968.00
2018-07-09T11:31:36.123Z,4980.00
2018-07-09T11:32:36.166Z,4992.00
2018-07-09T11:33:36.207Z,5044.00
2018-07-09T11:34:36.248Z,5180.00
2018-07-09T11:35:36.289Z,5280.00
2018-07-09T11:36:36.331Z,5424.00
2018-07-09T11:37:36.380Z,5480.00
2018-07-09T11:38:36.416Z,5528.00
2018-07-09T11:39:36.455Z,5608.00
2018-07-09T11:40:36.498Z,5708.00
2018-07-09T11:41:36.539Z,5940.00
2018-07-09T11:42:36.579Z,6268.00
2018-07-09T11:43:36.630Z,6532.00
2018-07-09T11:44:36.929Z,6808.00
2018-07-09T11:45:36.716Z,7080.00
2018-07-09T11:46:36.749Z,7164.00
2018-07-09T11:47:36.800Z,7340.00
2018-07-09T11:48:36.832Z,7560.00
2018-07-09T11:49:36.875Z,7684.00
2018-07-09T11:50:36.917Z,7752.00
2018-07-09T11:51:36.958Z,7548.00
2018-07-09T11:52:37.000Z,7356.00
2018-07-09T11:53:37.041Z,7348.00
2018-07-09T11:54:37.085Z,7208.00
2018-07-09T11:55:37.129Z,7172.00
2018-07-09T11:56:37.172Z,7244.00
2018-07-09T11:57:37.212Z,7348.00
2018-07-09T11:58:37.294Z,7524.00
2018-07-09T11:59:37.309Z,7920.00
2018-07-09T12:00:37.338Z,8312.00
2018-07-09T12:01:37.388Z,8476.00
2018-07-09T12:02:37.419Z,8616.00
2018-07-09T12:03:37.468Z,8488.00
2018-07-09T12:04:37.508Z,8648.00
2018-07-09T12:05:37.548Z,8988.00
2018-07-09T12:06:37.599Z,9484.00
2018-07-09T12:07:37.633Z,10036.00
2018-07-09T12:08:37.675Z,10436.00
2018-07-09T12:09:37.721Z,10628.00
2018-07-09T12:10:37.757Z,10576.00
2018-07-09T12:11:37.809Z,10552.00
2018-07-09T12:12:37.851Z,10384.00
2018-07-09T12:13:37.887Z,10656.00
2018-07-09T12:14:37.937Z,11436.00
2018-07-09T12:15:37.972Z,12184.00
2018-07-09T12:16:38.013Z,12544.00
2018-07-09T12:17:38.057Z,12368.00
2018-07-09T12:18:38.101Z,12292.00
2018-07-09T12:19:38.142Z,12368.00
2018-07-09T12:20:38.187Z,12612.00
2018-07-09T12:21:38.261Z,13220.00
2018-07-09T12:22:38.270Z,13616.00
2018-07-09T12:23:38.315Z,13752.00